createdAt,value
2022-12-17T00:00:28.108Z,-9.13
2022-12-17T00:05:48.531Z,-9.16
2022-12-17T00:11:10.124Z,-9.15
2022-12-17T00:16:30.418Z,-9.14
2022-12-17T00:21:50.739Z,-9.18
2022-12-17T00:27:13.223Z,-9.29
2022-12-17T00:32:29.667Z,-9.30
2022-12-17T00:37:50.559Z,-9.23
2022-12-17T00:43:19.238Z,-9.17
2022-12-17T00:48:39.687Z,-9.13
2022-12-17T00:54:05.193Z,-9.14
2022-12-17T00:59:26.695Z,-9.08
2022-12-17T01:04:55.490Z,-9.04
2022-12-17T01:10:16.737Z,-8.99
2022-12-17T01:15:38.216Z,-8.98
2022-12-17T01:20:58.707Z,-9.01
2022-12-17T01:26:18.920Z,-9.04
2022-12-17T01:31:40.504Z,-9.07
2022-12-17T01:37:00.745Z,-9.14
2022-12-17T01:42:21.175Z,-9.25
2022-12-17T01:47:42.816Z,-9.49
2022-12-17T01:53:03.225Z,-9.77
2022-12-17T01:58:25.787Z,-9.91
2022-12-17T02:03:47.350Z,-9.87
2022-12-17T02:09:16.449Z,-9.82
2022-12-17T02:14:43.436Z,-9.82
2022-12-17T02:20:16.015Z,-9.78
2022-12-17T02:25:45.323Z,-9.75
2022-12-17T02:31:06.962Z,-9.67
2022-12-17T02:36:27.379Z,-9.62
2022-12-17T02:41:49.338Z,-9.64
2022-12-17T02:47:12.501Z,-9.74
2022-12-17T02:52:36.896Z,-9.78
2022-12-17T02:57:57.162Z,-9.85
2022-12-17T03:03:18.866Z,-9.86
2022-12-17T03:08:38.909Z,-9.83
2022-12-17T03:13:59.286Z,-9.80
2022-12-17T03:19:21.808Z,-9.77
2022-12-17T03:24:42.115Z,-9.76
2022-12-17T03:30:02.338Z,-9.78
2022-12-17T03:35:32.605Z,-9.80
2022-12-17T03:40:52.901Z,-9.78
2022-12-17T03:46:13.313Z,-9.79
2022-12-17T03:51:34.682Z,-9.80
2022-12-17T03:56:55.101Z,-9.76
2022-12-17T04:02:15.684Z,-9.73
2022-12-17T04:07:37.487Z,-9.70
2022-12-17T04:12:57.632Z,-9.69
2022-12-17T04:18:18.031Z,-9.70
2022-12-17T04:23:39.423Z,-9.71
2022-12-17T04:28:59.849Z,-9.72
2022-12-17T04:34:20.128Z,-9.69
2022-12-17T04:39:41.865Z,-9.66
2022-12-17T04:45:02.146Z,-9.66
2022-12-17T04:50:28.289Z,-9.66
2022-12-17T04:55:49.971Z,-9.65
2022-12-17T05:01:10.292Z,-9.66
2022-12-17T05:06:30.719Z,-9.64
2022-12-17T05:11:52.302Z,-9.64
2022-12-17T05:17:12.613Z,-9.64
2022-12-17T05:22:32.962Z,-9.65
2022-12-17T05:27:54.565Z,-9.67
2022-12-17T05:33:18.399Z,-9.72
2022-12-17T05:38:38.716Z,-9.78
2022-12-17T05:44:00.941Z,-9.88
2022-12-17T05:49:21.229Z,-9.92
2022-12-17T05:54:46.868Z,-10.00
2022-12-17T06:00:08.451Z,-10.05
2022-12-17T06:05:28.636Z,-10.04
2022-12-17T06:10:49.071Z,-10.02
2022-12-17T06:16:10.798Z,-9.95
2022-12-17T06:21:31.046Z,-9.94
2022-12-17T06:26:51.242Z,-9.96
2022-12-17T06:32:12.928Z,-9.99
2022-12-17T06:37:33.314Z,-10.03
2022-12-17T06:43:08.233Z,-9.99
2022-12-17T06:48:29.618Z,-9.96
2022-12-17T06:53:49.788Z,-9.96
2022-12-17T06:59:10.004Z,-9.99
2022-12-17T07:04:31.580Z,-10.10
2022-12-17T07:09:51.897Z,-10.05
2022-12-17T07:15:12.647Z,-9.96
2022-12-17T07:20:34.369Z,-9.94
2022-12-17T07:25:54.628Z,-9.99
2022-12-17T07:31:15.093Z,-10.03
2022-12-17T07:36:32.899Z,-9.99
2022-12-17T07:42:01.641Z,-9.95
2022-12-17T07:47:22.035Z,-9.87
2022-12-17T07:52:43.636Z,-9.79
2022-12-17T07:58:03.835Z,-9.67
2022-12-17T08:03:24.217Z,-9.52
2022-12-17T08:08:45.604Z,-9.41
2022-12-17T08:14:05.911Z,-9.29
2022-12-17T08:19:34.605Z,-9.18
2022-12-17T08:24:56.159Z,-9.12
2022-12-17T08:30:16.516Z,-9.06
2022-12-17T08:35:36.842Z,-8.99
2022-12-17T08:40:58.420Z,-8.91
2022-12-17T08:46:18.910Z,-8.85
2022-12-17T08:51:39.498Z,-8.78
2022-12-17T08:57:27.101Z,-8.72
2022-12-17T09:02:51.339Z,-8.74
2022-12-17T09:08:17.754Z,-8.71
2022-12-17T09:13:39.449Z,-8.65
2022-12-17T09:18:59.373Z,-8.62
2022-12-17T09:24:19.784Z,-8.55
2022-12-17T09:29:41.329Z,-8.45
2022-12-17T09:35:01.834Z,-8.39
2022-12-17T09:40:30.631Z,-8.26
2022-12-17T09:46:00.755Z,-8.09
2022-12-17T09:51:21.158Z,-7.94
2022-12-17T09:56:44.841Z,-7.85
2022-12-17T10:02:06.723Z,-7.78
2022-12-17T10:07:31.553Z,-7.72
2022-12-17T10:12:52.225Z,-7.63
2022-12-17T10:18:13.976Z,-7.52
2022-12-17T10:23:41.825Z,-7.39
2022-12-17T10:29:02.045Z,-7.25
2022-12-17T10:34:27.062Z,-7.13
2022-12-17T10:39:47.504Z,-7.05
2022-12-17T10:45:07.631Z,-7.02
2022-12-17T10:50:31.893Z,-6.97
2022-12-17T10:55:53.640Z,-6.88
2022-12-17T11:01:18.448Z,-6.83
2022-12-17T11:06:43.820Z,-6.74
2022-12-17T11:12:07.442Z,-6.65
2022-12-17T11:17:35.694Z,-6.54
2022-12-17T11:23:02.355Z,-6.59
2022-12-17T11:28:32.653Z,-6.62
2022-12-17T11:34:02.749Z,-6.56
2022-12-17T11:39:30.276Z,-6.54
2022-12-17T11:45:03.638Z,-6.46
2022-12-17T11:50:52.265Z,-6.39
2022-12-17T11:56:23.060Z,-6.31
2022-12-17T12:01:52.379Z,-6.24
2022-12-17T12:07:22.268Z,-6.15
2022-12-17T12:12:53.992Z,-6.02
2022-12-17T12:18:21.587Z,-5.88
2022-12-17T12:23:51.006Z,-5.75
2022-12-17T12:29:17.619Z,-5.65
2022-12-17T12:34:43.127Z,-5.56
2022-12-17T12:40:10.214Z,-5.45
2022-12-17T12:45:48.950Z,-5.40
2022-12-17T12:51:16.389Z,-5.37
2022-12-17T12:56:47.762Z,-5.35
2022-12-17T13:02:10.896Z,-5.27
2022-12-17T13:07:22.347Z,-5.21
2022-12-17T13:12:29.711Z,-5.14
2022-12-17T13:17:37.667Z,-5.07
2022-12-17T13:22:51.026Z,-5.00
2022-12-17T13:27:53.555Z,-5.00
2022-12-17T13:33:08.561Z,-4.96
2022-12-17T13:38:20.935Z,-4.94
2022-12-17T13:43:28.060Z,-4.88
2022-12-17T13:48:31.913Z,-4.84
2022-12-17T13:53:34.770Z,-4.80
2022-12-17T13:58:37.526Z,-4.77
2022-12-17T14:04:05.670Z,-4.76
2022-12-17T14:09:17.669Z,-4.85
2022-12-17T14:14:27.025Z,-4.96
2022-12-17T14:19:33.036Z,-5.07
2022-12-17T14:24:35.696Z,-5.19
2022-12-17T14:29:47.388Z,-5.27
2022-12-17T14:34:54.611Z,-5.37
2022-12-17T14:40:03.897Z,-5.40
2022-12-17T14:45:22.205Z,-5.44
2022-12-17T14:50:30.462Z,-5.51
2022-12-17T14:55:36.264Z,-5.57
2022-12-17T15:00:40.271Z,-5.58
2022-12-17T15:05:55.597Z,-5.52
2022-12-17T15:10:59.508Z,-5.47
2022-12-17T15:16:01.983Z,-5.45
2022-12-17T15:21:06.656Z,-5.39
2022-12-17T15:26:10.646Z,-5.30
2022-12-17T15:31:14.826Z,-5.19
2022-12-17T15:36:18.657Z,-5.14
2022-12-17T15:41:39.036Z,-5.09
2022-12-17T15:46:41.544Z,-5.01
2022-12-17T15:51:45.395Z,-4.95
2022-12-17T15:56:53.463Z,-4.91
2022-12-17T16:01:56.025Z,-4.90
2022-12-17T16:06:59.890Z,-4.90
2022-12-17T16:12:02.501Z,-4.90
2022-12-17T16:17:04.983Z,-4.94
2022-12-17T16:22:09.061Z,-4.96
2022-12-17T16:27:11.540Z,-4.98
2022-12-17T16:32:14.052Z,-5.00
2022-12-17T16:37:18.781Z,-4.97
2022-12-17T16:42:21.265Z,-4.98
2022-12-17T16:47:23.860Z,-4.97
2022-12-17T16:52:27.724Z,-4.95
2022-12-17T16:57:30.211Z,-5.03
2022-12-17T17:02:33.399Z,-5.16
2022-12-17T17:07:37.343Z,-5.31
2022-12-17T17:12:39.802Z,-5.41
2022-12-17T17:17:53.806Z,-5.43
2022-12-17T17:23:00.080Z,-5.40
2022-12-17T17:28:02.549Z,-5.36
2022-12-17T17:33:05.115Z,-5.32
2022-12-17T17:38:08.918Z,-5.28
2022-12-17T17:43:12.098Z,-5.24
2022-12-17T17:48:14.562Z,-5.24
2022-12-17T17:53:18.565Z,-5.26
2022-12-17T17:58:21.642Z,-5.28
2022-12-17T18:03:24.281Z,-5.26
2022-12-17T18:08:30.026Z,-5.30
2022-12-17T18:13:50.867Z,-5.34
2022-12-17T18:18:54.693Z,-5.34
2022-12-17T18:24:00.987Z,-5.32
2022-12-17T18:29:03.761Z,-5.27
2022-12-17T18:34:07.408Z,-5.26
2022-12-17T18:39:13.984Z,-5.27
2022-12-17T18:44:17.717Z,-5.31
2022-12-17T18:49:21.787Z,-5.32
2022-12-17T18:54:28.317Z,-5.39
2022-12-17T18:59:31.997Z,-5.41
2022-12-17T19:04:34.598Z,-5.43
2022-12-17T19:09:40.343Z,-5.46
2022-12-17T19:14:43.301Z,-5.46
2022-12-17T19:19:45.811Z,-5.46
2022-12-17T19:24:49.623Z,-5.49
2022-12-17T19:29:56.367Z,-5.51
2022-12-17T19:34:58.855Z,-5.56
2022-12-17T19:40:02.744Z,-5.60
2022-12-17T19:45:07.042Z,-5.65
2022-12-17T19:50:10.366Z,-5.64
2022-12-17T19:55:14.209Z,-5.67
2022-12-17T20:00:17.376Z,-5.71
2022-12-17T20:05:19.869Z,-5.72
2022-12-17T20:10:23.690Z,-5.75
2022-12-17T20:15:26.183Z,-5.78
2022-12-17T20:20:28.763Z,-5.83
2022-12-17T20:25:32.590Z,-5.88
2022-12-17T20:30:35.142Z,-5.90
2022-12-17T20:35:40.124Z,-5.96
2022-12-17T20:40:43.955Z,-6.01
2022-12-17T20:45:50.911Z,-6.07
2022-12-17T20:50:54.397Z,-6.13
2022-12-17T20:56:02.744Z,-6.16
2022-12-17T21:01:08.139Z,-6.19
2022-12-17T21:06:12.716Z,-6.23
2022-12-17T21:11:17.272Z,-6.26
2022-12-17T21:16:22.336Z,-6.30
2022-12-17T21:21:27.109Z,-6.32
2022-12-17T21:26:32.981Z,-6.36
2022-12-17T21:31:37.935Z,-6.41
2022-12-17T21:36:40.885Z,-6.46
2022-12-17T21:42:06.810Z,-6.50
2022-12-17T21:47:09.332Z,-6.55
2022-12-17T21:52:11.845Z,-6.59
2022-12-17T21:57:15.744Z,-6.64
2022-12-17T22:02:18.981Z,-6.69
2022-12-17T22:07:27.621Z,-6.70
2022-12-17T22:12:51.762Z,-6.72
2022-12-17T22:17:55.314Z,-6.77
2022-12-17T22:22:58.671Z,-6.81
2022-12-17T22:28:02.649Z,-6.86
2022-12-17T22:33:12.353Z,-6.92
2022-12-17T22:41:55.941Z,-6.96
2022-12-17T22:44:49.041Z,-7.00
2022-12-17T22:49:15.881Z,-7.05
2022-12-17T22:54:18.395Z,-7.08
2022-12-17T22:59:22.781Z,-7.14
2022-12-17T23:04:25.260Z,-7.16
2022-12-17T23:09:27.921Z,-7.19
2022-12-17T23:14:31.730Z,-7.21
2022-12-17T23:19:34.201Z,-7.25
2022-12-17T23:24:36.736Z,-7.26
2022-12-17T23:29:40.586Z,-7.27
2022-12-17T23:34:43.598Z,-7.27
2022-12-17T23:39:46.072Z,-7.28
2022-12-17T23:44:50.037Z,-7.30
2022-12-17T23:49:53.084Z,-7.30
2022-12-17T23:54:55.561Z,-7.32
2022-12-17T23:59:59.411Z,-7.34
